createdAt,value
2018-08-06T00:02:24.637Z,3.03
2018-08-06T00:04:52.934Z,3.40
2018-08-06T00:07:21.167Z,3.80
2018-08-06T00:09:49.505Z,3.50
2018-08-06T00:12:17.738Z,3.03
2018-08-06T00:14:46.003Z,3.60
2018-08-06T00:17:14.298Z,3.20
2018-08-06T00:19:42.656Z,3.50
2018-08-06T00:22:10.880Z,3.80
2018-08-06T00:24:39.361Z,3.70
2018-08-06T00:27:07.683Z,3.90
2018-08-06T00:29:35.928Z,4.00
2018-08-06T00:32:04.245Z,3.40
2018-08-06T00:34:32.529Z,3.83
2018-08-06T00:37:00.994Z,3.30
2018-08-06T00:39:29.281Z,3.97
2018-08-06T00:41:57.505Z,3.17
2018-08-06T00:44:25.555Z,3.47
2018-08-06T00:46:53.886Z,3.40
2018-08-06T00:49:22.251Z,3.00
2018-08-06T00:51:50.590Z,4.07
2018-08-06T00:54:18.891Z,3.90
2018-08-06T00:56:47.133Z,3.60
2018-08-06T00:59:15.385Z,3.83
2018-08-06T01:01:43.586Z,3.80
2018-08-06T01:04:11.929Z,4.10
2018-08-06T01:06:40.201Z,4.57
2018-08-06T01:09:09.417Z,3.90
2018-08-06T01:11:37.997Z,3.63
2018-08-06T01:14:06.357Z,3.87
2018-08-06T01:16:34.637Z,4.00
2018-08-06T01:19:03.011Z,4.00
2018-08-06T01:21:31.205Z,4.40
2018-08-06T01:23:59.420Z,3.80
2018-08-06T01:26:27.653Z,4.13
2018-08-06T01:28:55.928Z,4.03
2018-08-06T01:31:24.222Z,3.93
2018-08-06T01:33:52.649Z,4.40
2018-08-06T01:36:20.961Z,3.90
2018-08-06T01:38:49.193Z,4.10
2018-08-06T01:41:17.751Z,3.90
2018-08-06T01:43:46.001Z,4.20
2018-08-06T01:46:14.221Z,4.40
2018-08-06T01:48:42.460Z,4.90
2018-08-06T01:51:10.678Z,4.30
2018-08-06T01:53:38.885Z,3.90
2018-08-06T01:56:07.443Z,4.20
2018-08-06T01:58:35.683Z,4.10
2018-08-06T02:01:04.031Z,4.00
2018-08-06T02:03:32.302Z,4.43
2018-08-06T02:06:00.521Z,4.47
2018-08-06T02:08:31.861Z,4.17
2018-08-06T02:11:00.138Z,4.60
2018-08-06T02:13:28.497Z,4.37
2018-08-06T02:15:56.794Z,4.60
2018-08-06T02:18:25.069Z,4.60
2018-08-06T02:20:53.337Z,4.53
2018-08-06T02:23:21.558Z,4.60
2018-08-06T02:25:49.835Z,4.87
2018-08-06T02:28:18.052Z,4.00
2018-08-06T02:30:46.349Z,4.57
2018-08-06T02:33:14.566Z,4.53
2018-08-06T02:35:42.774Z,5.00
2018-08-06T02:38:11.047Z,4.53
2018-08-06T02:40:39.273Z,5.50
2018-08-06T02:43:07.918Z,4.73
2018-08-06T02:45:36.195Z,4.90
2018-08-06T02:48:04.828Z,5.13
2018-08-06T02:50:33.209Z,5.00
2018-08-06T02:53:01.851Z,4.67
2018-08-06T02:55:30.083Z,5.20
2018-08-06T02:57:58.445Z,4.90
2018-08-06T03:00:26.731Z,4.33
2018-08-06T03:02:55.100Z,4.73
2018-08-06T03:05:23.397Z,4.90
2018-08-06T03:07:51.865Z,4.80
2018-08-06T03:10:20.178Z,4.87
2018-08-06T03:12:48.488Z,4.33
2018-08-06T03:15:16.795Z,4.80
2018-08-06T03:17:45.025Z,5.40
2018-08-06T03:20:14.220Z,5.37
2018-08-06T03:22:42.463Z,5.40
2018-08-06T03:25:12.945Z,5.33
2018-08-06T03:27:41.644Z,5.70
2018-08-06T03:30:12.152Z,5.70
2018-08-06T03:32:40.689Z,5.23
2018-08-06T03:35:10.379Z,5.50
2018-08-06T03:37:38.681Z,5.00
2018-08-06T03:40:07.685Z,5.13
2018-08-06T03:42:35.920Z,5.90
2018-08-06T03:45:05.779Z,6.03
2018-08-06T03:47:33.981Z,5.50
2018-08-06T03:50:02.229Z,5.67
2018-08-06T03:52:30.479Z,5.57
2018-08-06T03:54:58.690Z,5.97
2018-08-06T03:57:27.320Z,6.00
2018-08-06T03:59:55.623Z,6.30
2018-08-06T04:02:23.861Z,5.30
2018-08-06T04:04:52.105Z,5.80
2018-08-06T04:07:20.317Z,6.20
2018-08-06T04:09:48.592Z,5.87
2018-08-06T04:12:16.880Z,5.60
2018-08-06T04:14:45.199Z,5.77
2018-08-06T04:17:13.578Z,5.40
2018-08-06T04:19:42.199Z,5.80
2018-08-06T04:22:10.370Z,5.33
2018-08-06T04:24:38.667Z,5.27
2018-08-06T04:27:07.074Z,5.53
2018-08-06T04:29:35.361Z,5.10
2018-08-06T04:32:03.941Z,4.90
2018-08-06T04:34:32.182Z,5.60
2018-08-06T04:37:00.439Z,5.20
2018-08-06T04:39:28.676Z,4.70
2018-08-06T04:41:56.952Z,5.23
2018-08-06T04:44:25.357Z,5.47
2018-08-06T04:46:53.597Z,4.87
2018-08-06T04:49:21.918Z,4.90
2018-08-06T04:51:50.235Z,5.10
2018-08-06T04:54:18.442Z,4.70
2018-08-06T04:56:46.769Z,4.80
2018-08-06T04:59:15.012Z,5.37
2018-08-06T05:01:43.393Z,4.70
2018-08-06T05:04:11.614Z,5.60
2018-08-06T05:06:39.966Z,4.80
2018-08-06T05:09:09.951Z,4.70
2018-08-06T05:11:38.430Z,5.60
2018-08-06T05:14:06.655Z,5.00
2018-08-06T05:16:34.957Z,5.00
2018-08-06T05:19:03.161Z,5.70
2018-08-06T05:21:31.417Z,4.97
2018-08-06T05:24:00.376Z,5.27
2018-08-06T05:26:29.995Z,4.60
2018-08-06T05:28:58.215Z,4.97
2018-08-06T05:31:27.714Z,4.60
2018-08-06T05:33:56.808Z,5.40
2018-08-06T05:36:25.118Z,4.80
2018-08-06T05:38:54.933Z,5.30
2018-08-06T05:41:24.489Z,4.70
2018-08-06T05:43:56.753Z,5.37
2018-08-06T05:46:25.373Z,5.10
2018-08-06T05:48:53.666Z,5.50
2018-08-06T05:51:21.952Z,5.77
2018-08-06T05:53:50.202Z,5.40
2018-08-06T05:56:18.454Z,5.20
2018-08-06T05:58:46.738Z,4.90
2018-08-06T06:01:15.094Z,5.20
2018-08-06T06:03:43.445Z,5.50
2018-08-06T06:06:11.709Z,4.60
2018-08-06T06:08:40.354Z,5.00
2018-08-06T06:11:09.336Z,4.87
2018-08-06T06:13:37.778Z,5.07
2018-08-06T06:16:07.120Z,4.87
2018-08-06T06:18:35.418Z,5.80
2018-08-06T06:21:03.733Z,4.83
2018-08-06T06:23:31.999Z,4.63
2018-08-06T06:26:00.254Z,5.00
2018-08-06T06:28:28.510Z,5.50
2018-08-06T06:30:56.729Z,5.13
2018-08-06T06:33:24.962Z,5.20
2018-08-06T06:35:53.285Z,4.97
2018-08-06T06:38:21.249Z,4.93
2018-08-06T06:40:49.542Z,4.90
2018-08-06T06:43:18.214Z,5.00
2018-08-06T06:45:46.538Z,4.90
2018-08-06T06:48:14.758Z,5.00
2018-08-06T06:50:43.041Z,4.83
2018-08-06T06:53:11.316Z,5.50
2018-08-06T06:55:39.893Z,4.87
2018-08-06T06:58:08.229Z,4.70
2018-08-06T07:00:36.453Z,4.50
2018-08-06T07:03:05.774Z,4.40
2018-08-06T07:05:33.996Z,3.83
2018-08-06T07:08:02.298Z,4.10
2018-08-06T07:10:30.545Z,3.70
2018-08-06T07:12:58.858Z,3.83
2018-08-06T07:15:27.155Z,3.47
2018-08-06T07:17:55.417Z,3.40
2018-08-06T07:20:24.164Z,3.47
2018-08-06T07:22:52.388Z,3.50
2018-08-06T07:25:20.637Z,4.00
2018-08-06T07:27:48.898Z,3.60
2018-08-06T07:30:17.155Z,3.97
2018-08-06T07:32:45.619Z,4.00
2018-08-06T07:35:14.386Z,3.90
2018-08-06T07:37:42.817Z,3.30
2018-08-06T07:40:13.249Z,3.30
2018-08-06T07:42:41.464Z,3.80
2018-08-06T07:45:13.079Z,3.43
2018-08-06T07:47:41.355Z,3.90
2018-08-06T07:50:12.242Z,3.33
2018-08-06T07:52:40.559Z,3.30
2018-08-06T07:55:08.822Z,4.13
2018-08-06T07:57:37.385Z,3.60
2018-08-06T08:00:08.538Z,4.30
2018-08-06T08:02:37.170Z,3.73
2018-08-06T08:05:07.693Z,3.50
2018-08-06T08:07:35.982Z,4.07
2018-08-06T08:10:06.368Z,3.90
2018-08-06T08:12:34.601Z,3.70
2018-08-06T08:15:03.357Z,3.40
2018-08-06T08:17:31.677Z,4.20
2018-08-06T08:20:00.025Z,3.67
2018-08-06T08:22:28.241Z,3.83
2018-08-06T08:24:56.678Z,3.83
2018-08-06T08:27:25.354Z,4.20
2018-08-06T08:29:53.742Z,3.50
2018-08-06T08:32:22.014Z,4.63
2018-08-06T08:34:50.641Z,4.37
2018-08-06T08:37:19.024Z,3.53
2018-08-06T08:39:47.651Z,3.50
2018-08-06T08:42:15.922Z,3.60
2018-08-06T08:44:44.209Z,2.80
2018-08-06T08:47:12.726Z,3.20
2018-08-06T08:49:40.918Z,3.40
2018-08-06T08:52:09.177Z,2.90
2018-08-06T08:54:37.223Z,3.80
2018-08-06T08:57:05.554Z,3.20
2018-08-06T08:59:34.142Z,2.57
2018-08-06T09:02:02.396Z,3.27
2018-08-06T09:04:30.989Z,3.47
2018-08-06T09:06:59.243Z,2.70
2018-08-06T09:09:27.498Z,2.87
2018-08-06T09:11:55.754Z,2.70
2018-08-06T09:14:24.097Z,3.33
2018-08-06T09:16:52.467Z,2.50
2018-08-06T09:19:20.683Z,3.00
2018-08-06T09:21:48.981Z,2.30
2018-08-06T09:24:17.254Z,2.60
2018-08-06T09:26:45.568Z,2.37
2018-08-06T09:29:13.913Z,3.10
2018-08-06T09:31:42.125Z,2.70
2018-08-06T09:34:10.392Z,2.80
2018-08-06T09:36:38.625Z,2.67
2018-08-06T09:39:09.829Z,2.10
2018-08-06T09:41:38.178Z,2.43
2018-08-06T09:44:06.958Z,2.20
2018-08-06T09:46:35.847Z,3.10
2018-08-06T09:49:04.572Z,2.50
2018-08-06T09:51:32.877Z,2.70
2018-08-06T09:54:01.194Z,2.00
2018-08-06T09:56:29.481Z,2.50
2018-08-06T09:58:57.753Z,2.10
2018-08-06T10:01:31.300Z,3.00
2018-08-06T10:03:59.565Z,2.73
2018-08-06T10:06:28.000Z,2.93
2018-08-06T10:08:56.070Z,3.20
2018-08-06T10:11:24.393Z,2.63
2018-08-06T10:13:52.618Z,3.20
2018-08-06T10:16:20.918Z,3.70
2018-08-06T10:18:49.337Z,2.80
2018-08-06T10:21:17.467Z,3.00
2018-08-06T10:23:46.077Z,2.53
2018-08-06T10:26:14.404Z,3.00
2018-08-06T10:28:42.623Z,3.10
2018-08-06T10:31:10.909Z,2.80
2018-08-06T10:33:39.302Z,2.70
2018-08-06T10:36:07.541Z,2.30
2018-08-06T10:38:35.884Z,3.40
2018-08-06T10:41:04.114Z,2.47
2018-08-06T10:43:32.430Z,2.20
2018-08-06T10:46:00.731Z,2.90
2018-08-06T10:48:29.141Z,2.80
2018-08-06T10:50:57.281Z,3.30
2018-08-06T10:53:25.556Z,2.80
2018-08-06T10:55:53.865Z,2.40
2018-08-06T10:58:22.130Z,2.90
2018-08-06T11:00:50.426Z,2.70
2018-08-06T11:03:18.848Z,2.33
2018-08-06T11:05:48.078Z,2.30
2018-08-06T11:08:16.307Z,2.40
2018-08-06T11:10:44.521Z,2.33
2018-08-06T11:13:12.872Z,2.20
2018-08-06T11:15:41.183Z,2.10
2018-08-06T11:18:09.521Z,1.80
2018-08-06T11:20:37.817Z,2.30
2018-08-06T11:23:06.251Z,2.13
2018-08-06T11:25:34.475Z,2.33
2018-08-06T11:28:02.716Z,2.17
2018-08-06T11:30:30.961Z,2.17
2018-08-06T11:32:59.189Z,2.27
2018-08-06T11:35:27.457Z,2.17
2018-08-06T11:37:56.465Z,1.80
2018-08-06T11:40:24.733Z,1.87
2018-08-06T11:42:52.974Z,1.57
2018-08-06T11:45:22.177Z,2.00
2018-08-06T11:47:50.426Z,1.70
2018-08-06T11:50:18.677Z,2.23
2018-08-06T11:52:46.948Z,1.97
2018-08-06T11:55:15.220Z,1.80
2018-08-06T11:57:43.430Z,1.70
2018-08-06T12:00:17.164Z,1.57
2018-08-06T12:02:45.514Z,1.90
2018-08-06T12:05:13.833Z,1.87
2018-08-06T12:07:42.222Z,1.77
2018-08-06T12:10:14.308Z,2.23
2018-08-06T12:12:43.374Z,1.73
2018-08-06T12:15:11.878Z,2.13
2018-08-06T12:17:40.978Z,1.73
2018-08-06T12:20:11.455Z,2.20
2018-08-06T12:22:40.950Z,2.10
2018-08-06T12:25:10.481Z,2.20
2018-08-06T12:27:38.753Z,2.60
2018-08-06T12:30:10.203Z,2.13
2018-08-06T12:32:38.556Z,2.20
2018-08-06T12:35:06.948Z,1.93
2018-08-06T12:37:35.519Z,2.20
2018-08-06T12:40:04.958Z,2.00
2018-08-06T12:42:33.273Z,2.03
2018-08-06T12:45:01.498Z,2.10
2018-08-06T12:47:29.852Z,2.10
2018-08-06T12:49:58.130Z,2.20
2018-08-06T12:52:26.450Z,2.07
2018-08-06T12:54:54.514Z,1.80
2018-08-06T12:57:22.734Z,2.17
2018-08-06T12:59:51.108Z,2.83
2018-08-06T13:02:19.410Z,1.93
2018-08-06T13:04:47.454Z,1.80
2018-08-06T13:07:16.006Z,2.30
2018-08-06T13:09:44.253Z,2.60
2018-08-06T13:12:12.543Z,2.03
2018-08-06T13:14:40.861Z,2.27
2018-08-06T13:17:09.109Z,2.00
2018-08-06T13:19:37.153Z,2.33
2018-08-06T13:22:06.067Z,2.20
2018-08-06T13:24:34.317Z,2.40
2018-08-06T13:27:02.593Z,2.10
2018-08-06T13:29:30.845Z,2.00
2018-08-06T13:31:59.186Z,1.90
2018-08-06T13:34:27.501Z,1.80
2018-08-06T13:36:56.190Z,2.07
2018-08-06T13:39:24.461Z,2.27
2018-08-06T13:41:52.420Z,2.30
2018-08-06T13:44:20.902Z,2.07
2018-08-06T13:46:48.897Z,2.07
2018-08-06T13:49:17.257Z,1.87
2018-08-06T13:51:45.710Z,2.37
2018-08-06T13:54:13.962Z,2.40
2018-08-06T13:56:42.214Z,2.00
2018-08-06T13:59:10.521Z,2.30
2018-08-06T14:01:38.709Z,2.80
2018-08-06T14:04:07.219Z,2.17
2018-08-06T14:06:35.530Z,2.67
2018-08-06T14:09:05.371Z,2.50
2018-08-06T14:11:33.683Z,2.10
2018-08-06T14:14:01.890Z,2.40
2018-08-06T14:16:30.228Z,2.10
2018-08-06T14:18:58.458Z,2.10
2018-08-06T14:21:26.865Z,2.50
2018-08-06T14:23:55.081Z,2.20
2018-08-06T14:26:23.369Z,2.10
2018-08-06T14:28:51.709Z,2.10
2018-08-06T14:31:20.281Z,2.00
2018-08-06T14:33:48.592Z,2.27
2018-08-06T14:36:16.845Z,1.93
2018-08-06T14:38:45.147Z,2.20
2018-08-06T14:41:13.438Z,2.03
2018-08-06T14:43:41.760Z,2.57
2018-08-06T14:46:10.005Z,2.20
2018-08-06T14:48:38.344Z,3.00
2018-08-06T14:51:06.714Z,2.20
2018-08-06T14:53:34.942Z,2.13
2018-08-06T14:56:03.251Z,2.80
2018-08-06T14:58:31.245Z,2.20
2018-08-06T15:00:59.850Z,1.90
2018-08-06T15:03:28.202Z,2.50
2018-08-06T15:05:56.587Z,2.60
2018-08-06T15:08:24.604Z,2.87
2018-08-06T15:10:52.636Z,2.43
2018-08-06T15:13:20.585Z,2.40
2018-08-06T15:15:49.404Z,2.03
2018-08-06T15:18:17.347Z,2.37
2018-08-06T15:20:45.364Z,2.60
2018-08-06T15:23:13.597Z,2.13
2018-08-06T15:25:41.910Z,2.43
2018-08-06T15:28:10.148Z,1.80
2018-08-06T15:30:38.442Z,2.27
2018-08-06T15:33:06.751Z,2.30
2018-08-06T15:35:35.032Z,2.10
2018-08-06T15:38:03.907Z,1.90
2018-08-06T15:40:32.509Z,2.40
2018-08-06T15:43:00.866Z,2.10
2018-08-06T15:45:29.150Z,2.57
2018-08-06T15:47:57.385Z,2.10
2018-08-06T15:50:25.662Z,2.20
2018-08-06T15:52:53.974Z,2.40
2018-08-06T15:55:22.280Z,2.50
2018-08-06T15:57:50.530Z,2.27
2018-08-06T16:00:19.779Z,2.20
2018-08-06T16:02:48.313Z,2.17
2018-08-06T16:05:16.647Z,2.10
2018-08-06T16:07:45.197Z,2.80
2018-08-06T16:10:14.222Z,2.60
2018-08-06T16:12:42.825Z,2.80
2018-08-06T16:15:12.382Z,2.10
2018-08-06T16:17:41.657Z,2.57
2018-08-06T16:20:12.755Z,2.73
2018-08-06T16:22:41.893Z,2.63
2018-08-06T16:25:11.051Z,2.53
2018-08-06T16:27:39.421Z,2.50
2018-08-06T16:30:11.175Z,2.40
2018-08-06T16:32:39.431Z,2.27
2018-08-06T16:35:07.953Z,2.93
2018-08-06T16:37:36.285Z,3.00
2018-08-06T16:40:05.122Z,2.67
2018-08-06T16:42:33.382Z,2.57
2018-08-06T16:45:01.757Z,2.80
2018-08-06T16:47:30.289Z,2.83
2018-08-06T16:49:58.529Z,3.77
2018-08-06T16:52:26.891Z,2.73
2018-08-06T16:54:54.909Z,3.73
2018-08-06T16:57:23.141Z,2.90
2018-08-06T16:59:51.654Z,2.73
2018-08-06T17:02:19.861Z,2.70
2018-08-06T17:04:48.127Z,2.57
2018-08-06T17:07:16.569Z,3.10
2018-08-06T17:09:44.845Z,3.30
2018-08-06T17:12:13.567Z,2.80
2018-08-06T17:14:41.821Z,2.80
2018-08-06T17:17:09.814Z,2.80
2018-08-06T17:19:38.052Z,2.50
2018-08-06T17:22:06.388Z,3.30
2018-08-06T17:24:34.735Z,2.60
2018-08-06T17:27:02.949Z,2.90
2018-08-06T17:29:31.268Z,3.33
2018-08-06T17:31:59.502Z,2.70
2018-08-06T17:34:27.816Z,2.47
2018-08-06T17:36:56.609Z,2.73
2018-08-06T17:39:24.969Z,2.93
2018-08-06T17:41:53.313Z,2.67
2018-08-06T17:44:21.542Z,2.40
2018-08-06T17:46:49.748Z,2.67
2018-08-06T17:49:18.397Z,2.10
2018-08-06T17:51:46.612Z,2.40
2018-08-06T17:54:14.861Z,2.00
2018-08-06T17:56:42.898Z,2.60
2018-08-06T17:59:11.132Z,2.40
2018-08-06T18:01:39.786Z,2.60
2018-08-06T18:04:08.103Z,2.40
2018-08-06T18:06:36.350Z,2.27
2018-08-06T18:09:08.099Z,2.40
2018-08-06T18:11:36.333Z,2.20
2018-08-06T18:14:04.685Z,2.27
2018-08-06T18:16:33.037Z,2.60
2018-08-06T18:19:01.342Z,2.00
2018-08-06T18:21:29.620Z,2.60
2018-08-06T18:23:57.957Z,2.50
2018-08-06T18:26:26.245Z,2.97
2018-08-06T18:28:54.519Z,2.60
2018-08-06T18:31:22.760Z,2.47
2018-08-06T18:33:51.026Z,2.57
2018-08-06T18:36:19.246Z,2.93
2018-08-06T18:38:47.956Z,2.37
2018-08-06T18:41:16.238Z,2.50
2018-08-06T18:43:44.486Z,2.33
2018-08-06T18:46:12.793Z,2.20
2018-08-06T18:48:41.061Z,2.70
2018-08-06T18:51:09.347Z,2.83
2018-08-06T18:53:37.578Z,2.73
2018-08-06T18:56:05.935Z,2.97
2018-08-06T18:58:34.177Z,2.67
2018-08-06T19:01:02.467Z,2.93
2018-08-06T19:03:31.046Z,3.03
2018-08-06T19:06:02.365Z,3.03
2018-08-06T19:08:30.906Z,2.90
2018-08-06T19:10:59.190Z,3.10
2018-08-06T19:13:32.921Z,3.10
2018-08-06T19:16:01.165Z,3.20
2018-08-06T19:19:37.518Z,2.87
2018-08-06T19:22:05.980Z,2.90
2018-08-06T19:24:40.143Z,3.23
2018-08-06T19:27:08.443Z,3.10
2018-08-06T19:29:36.712Z,3.23
2018-08-06T19:32:05.093Z,2.90
2018-08-06T19:34:33.307Z,3.40
2018-08-06T19:38:05.694Z,3.57
2018-08-06T19:40:33.955Z,3.17
2018-08-06T19:43:08.185Z,3.10
2018-08-06T19:45:36.511Z,3.50
2018-08-06T19:48:04.790Z,3.00
2018-08-06T19:50:39.714Z,3.20
2018-08-06T19:53:08.039Z,3.70
2018-08-06T19:55:41.494Z,3.40
2018-08-06T19:58:09.870Z,3.60
2018-08-06T20:00:38.149Z,3.90
2018-08-06T20:03:06.558Z,3.67
2018-08-06T20:05:34.955Z,4.30
2018-08-06T20:08:04.062Z,4.20
2018-08-06T20:10:32.394Z,3.70
2018-08-06T20:13:00.651Z,3.50
2018-08-06T20:15:29.024Z,4.33
2018-08-06T20:17:57.257Z,5.27
2018-08-06T20:20:25.553Z,4.10
2018-08-06T20:22:53.567Z,4.20
2018-08-06T20:25:22.090Z,4.23
2018-08-06T20:27:50.942Z,4.27
2018-08-06T20:30:20.553Z,3.87
2018-08-06T20:32:49.001Z,4.83
2018-08-06T20:35:17.904Z,5.00
2018-08-06T20:37:46.136Z,4.60
2018-08-06T20:40:14.181Z,5.00
2018-08-06T20:42:43.528Z,4.60
2018-08-06T20:45:14.465Z,4.33
2018-08-06T20:47:43.193Z,5.27
2018-08-06T20:50:13.207Z,6.07
2018-08-06T20:52:41.583Z,4.80
2018-08-06T20:55:10.763Z,5.30
2018-08-06T20:57:39.805Z,5.10
2018-08-06T21:00:10.365Z,5.63
2018-08-06T21:02:39.034Z,5.60
2018-08-06T21:05:07.263Z,6.50
2018-08-06T21:07:35.550Z,6.60
2018-08-06T21:10:04.717Z,5.53
2018-08-06T21:12:32.937Z,7.30
2018-08-06T21:15:01.279Z,6.37
2018-08-06T21:17:29.497Z,6.50
2018-08-06T21:19:57.698Z,7.33
2018-08-06T21:22:25.993Z,6.77
2018-08-06T21:24:55.314Z,6.90
2018-08-06T21:27:23.585Z,6.90
2018-08-06T21:29:51.809Z,6.40
2018-08-06T21:32:20.113Z,6.70
2018-08-06T21:34:48.406Z,6.97
2018-08-06T21:37:16.617Z,7.13
2018-08-06T21:39:44.919Z,6.50
2018-08-06T21:42:13.224Z,6.27
2018-08-06T21:44:41.522Z,6.30
2018-08-06T21:47:09.773Z,6.93
2018-08-06T21:49:38.000Z,8.00
2018-08-06T21:52:06.097Z,7.30
2018-08-06T21:54:34.342Z,7.27
2018-08-06T21:57:02.637Z,8.63
2018-08-06T21:59:30.652Z,8.13
2018-08-06T22:01:58.913Z,7.67
2018-08-06T22:04:27.177Z,7.57
2018-08-06T22:06:55.503Z,7.73
2018-08-06T22:09:23.817Z,8.17
2018-08-06T22:11:52.073Z,8.37
2018-08-06T22:14:20.319Z,9.20
2018-08-06T22:16:48.668Z,8.30
2018-08-06T22:19:16.923Z,10.33
2018-08-06T22:21:45.173Z,9.27
2018-08-06T22:24:13.461Z,9.07
2018-08-06T22:26:41.721Z,10.20
2018-08-06T22:29:09.997Z,10.23
2018-08-06T22:31:38.238Z,9.30
2018-08-06T22:34:06.514Z,11.60
2018-08-06T22:36:34.769Z,10.70
2018-08-06T22:39:03.351Z,9.70
2018-08-06T22:41:31.558Z,11.47
2018-08-06T22:43:59.904Z,13.10
2018-08-06T22:46:28.130Z,13.53
2018-08-06T22:48:56.378Z,12.50
2018-08-06T22:51:24.639Z,12.80
2018-08-06T22:53:52.942Z,13.87
2018-08-06T22:56:21.209Z,13.90
2018-08-06T22:58:49.509Z,14.17
2018-08-06T23:01:17.743Z,15.37
2018-08-06T23:03:46.065Z,16.37
2018-08-06T23:06:14.389Z,15.93
2018-08-06T23:08:42.700Z,16.57
2018-08-06T23:11:10.969Z,17.03
2018-08-06T23:13:39.331Z,17.17
2018-08-06T23:16:07.611Z,16.90
2018-08-06T23:18:35.858Z,15.40
2018-08-06T23:21:04.157Z,14.73
2018-08-06T23:23:32.447Z,13.50
2018-08-06T23:26:00.707Z,14.10
2018-08-06T23:28:28.981Z,15.00
2018-08-06T23:30:57.221Z,17.20
2018-08-06T23:33:25.529Z,19.13
2018-08-06T23:35:53.823Z,19.40
2018-08-06T23:38:22.106Z,18.67
2018-08-06T23:40:50.430Z,18.90
2018-08-06T23:43:18.693Z,20.37
2018-08-06T23:45:46.917Z,20.10
2018-08-06T23:48:15.158Z,19.73
2018-08-06T23:50:43.779Z,20.53
2018-08-06T23:53:12.193Z,20.83
2018-08-06T23:55:40.513Z,22.07
2018-08-06T23:58:08.810Z,22.40
